Terminal Aerodrome Forecast
Issued by NWS Shreveport, LA

Home | Current Version | Previous Version | Text Only | Print | Product List | Glossary On
Versions: 1 2 3 4 5 6 7 8 9 10 11 12 13 14 15 16 17 18 19 20 21 22 23 24 25 26 27 28
000
FTUS44 KSHV 291145
TAFTYR
TAF
KTYR 291145Z 2912/3012 17005KT 5SM BR BKN030 OVC040
      TEMPO 2913/2914 6SM BR SCT030 OVC040
     FM291400 20006KT P6SM SCT035 BKN045 OVC150
     FM291600 19007KT P6SM SCT045 BKN150 OVC250
     FM291900 15007KT P6SM SCT045 OVC150
     FM292300 05006KT P6SM BKN150 OVC250
     FM300400 11005KT P6SM OVC250=

USA.gov is the U.S. government's official web portal to all federal, state and local government web resources and services.